sensor_id;sensor_type;location;lat;lon;timestamp;pressure;altitude;pressure_sealevel;temperature;humidity
46722;BME280;32455;43.430;23.136;2023-03-23T00:01:48;98231.69;;;4.92;100.00
46722;BME280;32455;43.430;23.136;2023-03-23T00:04:35;98217.38;;;4.78;100.00
46722;BME280;32455;43.430;23.136;2023-03-23T00:07:21;98253.09;;;4.84;100.00
46722;BME280;32455;43.430;23.136;2023-03-23T00:10:12;98237.75;;;4.86;100.00
46722;BME280;32455;43.430;23.136;2023-03-23T00:12:57;98221.69;;;4.65;100.00
46722;BME280;32455;43.430;23.136;2023-03-23T00:15:47;98232.44;;;4.86;100.00
46722;BME280;32455;43.430;23.136;2023-03-23T00:18:33;98238.19;;;4.75;100.00
46722;BME280;32455;43.430;23.136;2023-03-23T00:21:22;98238.69;;;4.93;100.00
46722;BME280;32455;43.430;23.136;2023-03-23T00:24:18;98228.28;;;4.98;100.00
46722;BME280;32455;43.430;23.136;2023-03-23T00:27:04;98225.81;;;4.97;100.00
46722;BME280;32455;43.430;23.136;2023-03-23T00:29:50;98227.81;;;4.95;100.00
46722;BME280;32455;43.430;23.136;2023-03-23T00:32:40;98211.50;;;4.98;100.00
46722;BME280;32455;43.430;23.136;2023-03-23T00:35:26;98224.16;;;5.11;100.00
46722;BME280;32455;43.430;23.136;2023-03-23T00:38:12;98224.59;;;5.14;100.00
46722;BME280;32455;43.430;23.136;2023-03-23T00:40:58;98219.13;;;4.86;100.00
46722;BME280;32455;43.430;23.136;2023-03-23T00:43:47;98232.06;;;4.74;100.00
46722;BME280;32455;43.430;23.136;2023-03-23T00:46:33;98213.78;;;4.86;100.00
46722;BME280;32455;43.430;23.136;2023-03-23T00:49:20;98215.59;;;5.00;100.00
46722;BME280;32455;43.430;23.136;2023-03-23T00:52:10;98229.00;;;5.07;100.00
46722;BME280;32455;43.430;23.136;2023-03-23T00:54:55;98214.63;;;5.01;100.00
46722;BME280;32455;43.430;23.136;2023-03-23T00:57:41;98232.84;;;5.19;100.00
46722;BME280;32455;43.430;23.136;2023-03-23T01:00:26;98224.41;;;5.01;100.00
46722;BME280;32455;43.430;23.136;2023-03-23T01:03:12;98216.75;;;5.27;100.00
46722;BME280;32455;43.430;23.136;2023-03-23T01:06:08;98220.81;;;5.09;100.00
46722;BME280;32455;43.430;23.136;2023-03-23T01:08:58;98223.03;;;5.20;100.00
46722;BME280;32455;43.430;23.136;2023-03-23T01:11:44;98215.06;;;4.90;100.00
46722;BME280;32455;43.430;23.136;2023-03-23T01:14:29;98200.13;;;4.89;100.00
46722;BME280;32455;43.430;23.136;2023-03-23T01:17:14;98192.41;;;4.80;100.00
46722;BME280;32455;43.430;23.136;2023-03-23T01:20:00;98205.19;;;4.84;100.00
46722;BME280;32455;43.430;23.136;2023-03-23T01:22:46;98197.69;;;5.09;100.00
46722;BME280;32455;43.430;23.136;2023-03-23T01:25:35;98200.81;;;5.70;100.00
46722;BME280;32455;43.430;23.136;2023-03-23T01:28:20;98197.69;;;5.88;100.00
46722;BME280;32455;43.430;23.136;2023-03-23T01:31:12;98196.03;;;5.87;100.00
46722;BME280;32455;43.430;23.136;2023-03-23T01:33:58;98190.72;;;5.87;100.00
46722;BME280;32455;43.430;23.136;2023-03-23T01:36:44;98190.41;;;5.97;100.00
46722;BME280;32455;43.430;23.136;2023-03-23T01:39:29;98196.34;;;5.99;100.00
46722;BME280;32455;43.430;23.136;2023-03-23T01:42:15;98193.75;;;6.06;100.00
46722;BME280;32455;43.430;23.136;2023-03-23T01:48:11;98207.19;;;6.19;100.00
46722;BME280;32455;43.430;23.136;2023-03-23T01:51:02;98211.94;;;6.23;100.00
46722;BME280;32455;43.430;23.136;2023-03-23T01:53:57;98211.25;;;6.15;100.00
46722;BME280;32455;43.430;23.136;2023-03-23T01:56:48;98196.41;;;6.06;100.00
46722;BME280;32455;43.430;23.136;2023-03-23T01:59:35;98198.03;;;6.00;100.00
46722;BME280;32455;43.430;23.136;2023-03-23T02:02:22;98202.00;;;6.11;100.00
46722;BME280;32455;43.430;23.136;2023-03-23T02:05:11;98216.91;;;6.26;100.00
46722;BME280;32455;43.430;23.136;2023-03-23T02:07:58;98208.22;;;6.18;100.00
46722;BME280;32455;43.430;23.136;2023-03-23T02:10:48;98218.06;;;6.17;100.00
46722;BME280;32455;43.430;23.136;2023-03-23T02:13:33;98208.06;;;6.26;100.00
46722;BME280;32455;43.430;23.136;2023-03-23T02:19:39;98195.94;;;6.23;100.00
46722;BME280;32455;43.430;23.136;2023-03-23T02:28:48;98210.47;;;5.93;100.00
46722;BME280;32455;43.430;23.136;2023-03-23T02:31:47;98224.03;;;5.98;100.00
46722;BME280;32455;43.430;23.136;2023-03-23T02:34:44;98211.84;;;6.10;100.00
46722;BME280;32455;43.430;23.136;2023-03-23T02:38:02;98230.59;;;5.95;100.00
46722;BME280;32455;43.430;23.136;2023-03-23T02:40:53;98217.53;;;5.64;100.00
46722;BME280;32455;43.430;23.136;2023-03-23T02:43:42;98218.94;;;5.60;100.00
46722;BME280;32455;43.430;23.136;2023-03-23T02:46:30;98219.00;;;5.45;100.00
46722;BME280;32455;43.430;23.136;2023-03-23T02:49:17;98215.75;;;5.28;100.00
46722;BME280;32455;43.430;23.136;2023-03-23T02:52:16;98225.94;;;5.25;100.00
46722;BME280;32455;43.430;23.136;2023-03-23T02:55:04;98243.88;;;5.31;100.00
46722;BME280;32455;43.430;23.136;2023-03-23T02:57:54;98230.81;;;5.21;100.00
46722;BME280;32455;43.430;23.136;2023-03-23T03:00:39;98237.47;;;4.66;100.00
46722;BME280;32455;43.430;23.136;2023-03-23T03:03:29;98242.50;;;4.32;100.00
46722;BME280;32455;43.430;23.136;2023-03-23T03:06:36;98245.16;;;4.32;100.00
46722;BME280;32455;43.430;23.136;2023-03-23T03:15:35;98246.28;;;3.76;100.00
46722;BME280;32455;43.430;23.136;2023-03-23T03:18:24;98243.56;;;3.85;100.00
46722;BME280;32455;43.430;23.136;2023-03-23T03:21:14;98246.91;;;4.24;100.00
46722;BME280;32455;43.430;23.136;2023-03-23T03:24:03;98241.88;;;4.44;100.00
46722;BME280;32455;43.430;23.136;2023-03-23T03:26:51;98240.66;;;4.32;100.00
46722;BME280;32455;43.430;23.136;2023-03-23T03:29:40;98237.81;;;4.34;100.00
46722;BME280;32455;43.430;23.136;2023-03-23T03:32:45;98246.94;;;4.54;100.00
46722;BME280;32455;43.430;23.136;2023-03-23T03:35:37;98229.66;;;4.35;100.00
46722;BME280;32455;43.430;23.136;2023-03-23T03:38:26;98248.47;;;4.34;100.00
46722;BME280;32455;43.430;23.136;2023-03-23T03:41:12;98244.25;;;4.24;100.00
46722;BME280;32455;43.430;23.136;2023-03-23T03:43:58;98225.44;;;4.26;100.00
46722;BME280;32455;43.430;23.136;2023-03-23T03:46:45;98245.88;;;4.25;100.00
46722;BME280;32455;43.430;23.136;2023-03-23T03:49:31;98246.81;;;4.33;100.00
46722;BME280;32455;43.430;23.136;2023-03-23T03:52:16;98232.97;;;3.99;100.00
46722;BME280;32455;43.430;23.136;2023-03-23T03:55:02;98252.09;;;4.18;100.00
46722;BME280;32455;43.430;23.136;2023-03-23T03:57:49;98232.94;;;4.22;100.00
46722;BME280;32455;43.430;23.136;2023-03-23T04:00:34;98240.66;;;4.32;100.00
46722;BME280;32455;43.430;23.136;2023-03-23T04:03:19;98230.97;;;4.01;100.00
46722;BME280;32455;43.430;23.136;2023-03-23T04:06:05;98238.50;;;4.13;100.00
46722;BME280;32455;43.430;23.136;2023-03-23T04:08:50;98249.56;;;4.24;100.00
46722;BME280;32455;43.430;23.136;2023-03-23T04:11:38;98245.69;;;4.27;100.00
46722;BME280;32455;43.430;23.136;2023-03-23T04:14:24;98247.31;;;4.13;100.00
46722;BME280;32455;43.430;23.136;2023-03-23T04:17:09;98252.81;;;3.89;100.00
46722;BME280;32455;43.430;23.136;2023-03-23T04:19:55;98247.75;;;3.79;100.00
46722;BME280;32455;43.430;23.136;2023-03-23T04:22:45;98258.88;;;3.83;100.00
46722;BME280;32455;43.430;23.136;2023-03-23T04:25:33;98256.63;;;3.94;100.00
46722;BME280;32455;43.430;23.136;2023-03-23T04:28:20;98247.56;;;3.81;100.00
46722;BME280;32455;43.430;23.136;2023-03-23T04:31:08;98254.66;;;3.88;100.00
46722;BME280;32455;43.430;23.136;2023-03-23T04:33:57;98238.13;;;3.55;100.00
46722;BME280;32455;43.430;23.136;2023-03-23T04:36:44;98241.09;;;3.60;100.00
46722;BME280;32455;43.430;23.136;2023-03-23T04:39:30;98261.56;;;3.51;100.00
46722;BME280;32455;43.430;23.136;2023-03-23T04:42:17;98246.75;;;3.57;100.00
46722;BME280;32455;43.430;23.136;2023-03-23T04:45:04;98248.69;;;3.63;100.00
46722;BME280;32455;43.430;23.136;2023-03-23T04:47:51;98260.91;;;3.72;100.00
46722;BME280;32455;43.430;23.136;2023-03-23T04:50:43;98268.44;;;3.69;100.00
46722;BME280;32455;43.430;23.136;2023-03-23T04:53:32;98257.22;;;3.82;100.00
46722;BME280;32455;43.430;23.136;2023-03-23T04:56:17;98254.94;;;3.93;100.00
46722;BME280;32455;43.430;23.136;2023-03-23T04:59:03;98260.75;;;3.97;100.00
46722;BME280;32455;43.430;23.136;2023-03-23T05:01:51;98265.75;;;4.15;100.00
46722;BME280;32455;43.430;23.136;2023-03-23T05:04:36;98224.19;;;3.99;100.00
46722;BME280;32455;43.430;23.136;2023-03-23T05:07:23;98261.50;;;4.43;100.00
46722;BME280;32455;43.430;23.136;2023-03-23T05:10:10;98271.34;;;4.72;100.00
46722;BME280;32455;43.430;23.136;2023-03-23T05:12:56;98258.13;;;4.94;100.00
46722;BME280;32455;43.430;23.136;2023-03-23T05:15:41;98265.91;;;5.25;100.00
46722;BME280;32455;43.430;23.136;2023-03-23T05:18:26;98268.81;;;5.45;100.00
46722;BME280;32455;43.430;23.136;2023-03-23T05:21:11;98272.00;;;5.55;100.00
46722;BME280;32455;43.430;23.136;2023-03-23T05:23:57;98271.00;;;5.77;100.00
46722;BME280;32455;43.430;23.136;2023-03-23T05:26:45;98265.75;;;5.84;100.00
46722;BME280;32455;43.430;23.136;2023-03-23T05:29:34;98284.06;;;6.09;100.00
46722;BME280;32455;43.430;23.136;2023-03-23T05:32:21;98283.97;;;6.23;100.00
46722;BME280;32455;43.430;23.136;2023-03-23T05:35:14;98289.41;;;6.30;100.00
46722;BME280;32455;43.430;23.136;2023-03-23T05:38:00;98282.06;;;6.39;100.00
46722;BME280;32455;43.430;23.136;2023-03-23T05:40:46;98278.09;;;6.56;100.00
46722;BME280;32455;43.430;23.136;2023-03-23T05:43:31;98276.03;;;6.58;100.00
46722;BME280;32455;43.430;23.136;2023-03-23T05:46:17;98288.75;;;6.84;100.00
46722;BME280;32455;43.430;23.136;2023-03-23T05:49:03;98283.75;;;7.02;100.00
46722;BME280;32455;43.430;23.136;2023-03-23T05:51:48;98296.63;;;7.34;100.00
46722;BME280;32455;43.430;23.136;2023-03-23T05:54:35;98301.88;;;7.55;100.00
46722;BME280;32455;43.430;23.136;2023-03-23T05:57:20;98300.28;;;7.74;100.00
46722;BME280;32455;43.430;23.136;2023-03-23T06:00:07;98299.50;;;8.00;100.00
46722;BME280;32455;43.430;23.136;2023-03-23T06:02:58;98298.09;;;8.17;100.00
46722;BME280;32455;43.430;23.136;2023-03-23T06:05:44;98307.59;;;8.26;100.00
46722;BME280;32455;43.430;23.136;2023-03-23T06:08:30;98305.78;;;8.40;100.00
46722;BME280;32455;43.430;23.136;2023-03-23T06:11:15;98310.31;;;8.46;100.00
46722;BME280;32455;43.430;23.136;2023-03-23T06:14:01;98292.19;;;8.48;100.00
46722;BME280;32455;43.430;23.136;2023-03-23T06:16:46;98300.22;;;8.48;100.00
46722;BME280;32455;43.430;23.136;2023-03-23T06:19:32;98301.03;;;8.56;100.00
46722;BME280;32455;43.430;23.136;2023-03-23T06:22:19;98319.16;;;8.80;100.00
46722;BME280;32455;43.430;23.136;2023-03-23T06:25:06;98323.47;;;8.94;100.00
46722;BME280;32455;43.430;23.136;2023-03-23T06:27:52;98323.06;;;8.97;100.00
46722;BME280;32455;43.430;23.136;2023-03-23T06:30:37;98319.50;;;9.30;100.00
46722;BME280;32455;43.430;23.136;2023-03-23T06:33:23;98321.72;;;9.40;100.00
46722;BME280;32455;43.430;23.136;2023-03-23T06:36:08;98318.03;;;9.34;100.00
46722;BME280;32455;43.430;23.136;2023-03-23T06:38:55;98323.22;;;9.16;100.00
46722;BME280;32455;43.430;23.136;2023-03-23T06:41:41;98326.13;;;9.14;100.00
46722;BME280;32455;43.430;23.136;2023-03-23T06:44:26;98328.59;;;9.22;100.00
46722;BME280;32455;43.430;23.136;2023-03-23T06:47:12;98344.84;;;9.34;100.00
46722;BME280;32455;43.430;23.136;2023-03-23T06:49:57;98332.00;;;9.56;100.00
46722;BME280;32455;43.430;23.136;2023-03-23T06:52:46;98335.44;;;9.76;100.00
46722;BME280;32455;43.430;23.136;2023-03-23T06:55:32;98339.81;;;9.64;100.00
46722;BME280;32455;43.430;23.136;2023-03-23T06:58:17;98339.94;;;9.83;100.00
46722;BME280;32455;43.430;23.136;2023-03-23T07:01:03;98350.03;;;9.87;100.00
46722;BME280;32455;43.430;23.136;2023-03-23T07:03:48;98357.44;;;9.92;100.00
46722;BME280;32455;43.430;23.136;2023-03-23T07:06:34;98328.72;;;9.92;100.00
46722;BME280;32455;43.430;23.136;2023-03-23T07:09:20;98346.34;;;10.20;100.00
46722;BME280;32455;43.430;23.136;2023-03-23T07:12:05;98351.00;;;10.38;100.00
46722;BME280;32455;43.430;23.136;2023-03-23T07:14:50;98345.00;;;10.36;100.00
46722;BME280;32455;43.430;23.136;2023-03-23T07:17:37;98370.63;;;10.38;100.00
46722;BME280;32455;43.430;23.136;2023-03-23T07:20:22;98360.53;;;10.90;100.00
46722;BME280;32455;43.430;23.136;2023-03-23T07:23:07;98341.59;;;11.03;100.00
46722;BME280;32455;43.430;23.136;2023-03-23T07:25:53;98359.28;;;11.54;100.00
46722;BME280;32455;43.430;23.136;2023-03-23T07:28:39;98355.31;;;11.57;100.00
46722;BME280;32455;43.430;23.136;2023-03-23T07:31:28;98361.19;;;11.47;100.00
46722;BME280;32455;43.430;23.136;2023-03-23T07:34:13;98369.06;;;11.67;100.00
46722;BME280;32455;43.430;23.136;2023-03-23T07:36:59;98362.31;;;12.13;100.00
46722;BME280;32455;43.430;23.136;2023-03-23T07:39:45;98365.16;;;12.18;100.00
46722;BME280;32455;43.430;23.136;2023-03-23T07:42:30;98351.53;;;12.13;100.00
46722;BME280;32455;43.430;23.136;2023-03-23T07:45:16;98371.41;;;12.31;100.00
46722;BME280;32455;43.430;23.136;2023-03-23T07:48:01;98375.66;;;12.38;100.00
46722;BME280;32455;43.430;23.136;2023-03-23T07:50:47;98365.69;;;12.39;100.00
46722;BME280;32455;43.430;23.136;2023-03-23T07:53:33;98380.16;;;12.56;100.00
46722;BME280;32455;43.430;23.136;2023-03-23T07:56:18;98358.00;;;12.54;100.00
46722;BME280;32455;43.430;23.136;2023-03-23T07:59:05;98377.84;;;12.60;100.00
46722;BME280;32455;43.430;23.136;2023-03-23T08:01:51;98371.41;;;12.72;100.00
46722;BME280;32455;43.430;23.136;2023-03-23T08:04:36;98366.22;;;12.71;100.00
46722;BME280;32455;43.430;23.136;2023-03-23T08:07:22;98370.84;;;12.82;100.00
46722;BME280;32455;43.430;23.136;2023-03-23T08:10:08;98364.34;;;12.71;97.86
46722;BME280;32455;43.430;23.136;2023-03-23T08:12:57;98376.84;;;12.96;100.00
46722;BME280;32455;43.430;23.136;2023-03-23T08:15:44;98373.78;;;12.92;98.94
46722;BME280;32455;43.430;23.136;2023-03-23T08:18:30;98388.91;;;13.05;100.00
46722;BME280;32455;43.430;23.136;2023-03-23T08:21:16;98377.44;;;13.10;100.00
46722;BME280;32455;43.430;23.136;2023-03-23T08:24:00;98379.78;;;13.06;98.83
46722;BME280;32455;43.430;23.136;2023-03-23T08:26:45;98373.41;;;12.89;98.04
46722;BME280;32455;43.430;23.136;2023-03-23T08:29:31;98378.72;;;12.95;96.54
46722;BME280;32455;43.430;23.136;2023-03-23T08:32:18;98382.84;;;12.98;95.66
46722;BME280;32455;43.430;23.136;2023-03-23T08:35:04;98388.94;;;12.93;95.22
46722;BME280;32455;43.430;23.136;2023-03-23T08:37:50;98385.03;;;12.77;92.11
46722;BME280;32455;43.430;23.136;2023-03-23T08:40:37;98386.28;;;12.75;94.59
46722;BME280;32455;43.430;23.136;2023-03-23T08:43:24;98373.16;;;12.78;93.34
46722;BME280;32455;43.430;23.136;2023-03-23T08:46:11;98385.97;;;12.95;94.71
46722;BME280;32455;43.430;23.136;2023-03-23T08:48:57;98368.16;;;12.94;95.41
46722;BME280;32455;43.430;23.136;2023-03-23T08:51:42;98381.91;;;13.16;89.92
46722;BME280;32455;43.430;23.136;2023-03-23T08:54:28;98356.66;;;13.10;89.82
46722;BME280;32455;43.430;23.136;2023-03-23T08:57:15;98380.84;;;13.17;90.04
46722;BME280;32455;43.430;23.136;2023-03-23T09:00:03;98376.25;;;13.17;90.06
46722;BME280;32455;43.430;23.136;2023-03-23T09:02:59;98366.88;;;13.08;89.17
46722;BME280;32455;43.430;23.136;2023-03-23T09:05:44;98372.16;;;13.15;85.70
46722;BME280;32455;43.430;23.136;2023-03-23T09:08:30;98373.47;;;13.36;87.87
46722;BME280;32455;43.430;23.136;2023-03-23T09:11:16;98373.34;;;13.31;87.97
46722;BME280;32455;43.430;23.136;2023-03-23T09:14:03;98360.22;;;13.34;87.78
46722;BME280;32455;43.430;23.136;2023-03-23T09:16:48;98370.66;;;13.42;87.54
46722;BME280;32455;43.430;23.136;2023-03-23T09:19:34;98373.59;;;13.41;85.44
46722;BME280;32455;43.430;23.136;2023-03-23T09:22:20;98351.06;;;13.47;88.98
46722;BME280;32455;43.430;23.136;2023-03-23T09:25:09;98365.59;;;13.58;91.38
46722;BME280;32455;43.430;23.136;2023-03-23T09:27:56;98360.31;;;13.63;90.15
46722;BME280;32455;43.430;23.136;2023-03-23T09:30:43;98360.31;;;13.63;88.56
46722;BME280;32455;43.430;23.136;2023-03-23T09:33:29;98365.81;;;13.68;86.11
46722;BME280;32455;43.430;23.136;2023-03-23T09:36:21;98365.44;;;13.76;88.07
46722;BME280;32455;43.430;23.136;2023-03-23T09:39:06;98359.72;;;13.61;88.95
46722;BME280;32455;43.430;23.136;2023-03-23T09:42:29;98363.13;;;13.44;87.01
46722;BME280;32455;43.430;23.136;2023-03-23T09:45:27;98361.38;;;13.38;89.04
46722;BME280;32455;43.430;23.136;2023-03-23T09:48:33;98361.38;;;13.50;90.29
46722;BME280;32455;43.430;23.136;2023-03-23T09:51:56;98368.59;;;13.85;86.48
46722;BME280;32455;43.430;23.136;2023-03-23T09:54:51;98360.13;;;13.93;84.99
46722;BME280;32455;43.430;23.136;2023-03-23T10:00:35;98361.72;;;14.34;84.05
46722;BME280;32455;43.430;23.136;2023-03-23T10:03:26;98347.84;;;14.14;83.18
46722;BME280;32455;43.430;23.136;2023-03-23T10:06:15;98344.28;;;14.42;83.54
46722;BME280;32455;43.430;23.136;2023-03-23T10:09:04;98354.09;;;14.60;84.22
46722;BME280;32455;43.430;23.136;2023-03-23T10:11:54;98353.53;;;14.58;85.51
46722;BME280;32455;43.430;23.136;2023-03-23T10:14:56;98339.28;;;14.62;82.42
46722;BME280;32455;43.430;23.136;2023-03-23T10:18:21;98347.41;;;14.79;77.94
46722;BME280;32455;43.430;23.136;2023-03-23T10:21:14;98350.00;;;14.57;77.13
46722;BME280;32455;43.430;23.136;2023-03-23T10:24:04;98347.47;;;14.39;74.56
46722;BME280;32455;43.430;23.136;2023-03-23T10:30:17;98347.94;;;14.64;69.86
46722;BME280;32455;43.430;23.136;2023-03-23T10:39:03;98348.03;;;15.03;68.73
46722;BME280;32455;43.430;23.136;2023-03-23T10:41:50;98343.22;;;15.05;70.31
46722;BME280;32455;43.430;23.136;2023-03-23T10:44:37;98326.25;;;14.93;69.37
46722;BME280;32455;43.430;23.136;2023-03-23T10:47:23;98332.88;;;14.85;67.16
46722;BME280;32455;43.430;23.136;2023-03-23T10:50:26;98319.59;;;14.50;68.97
46722;BME280;32455;43.430;23.136;2023-03-23T10:53:21;98321.91;;;14.92;67.42
46722;BME280;32455;43.430;23.136;2023-03-23T10:56:24;98326.56;;;14.96;72.59
46722;BME280;32455;43.430;23.136;2023-03-23T10:59:39;98319.84;;;14.65;71.33
46722;BME280;32455;43.430;23.136;2023-03-23T11:02:26;98320.47;;;15.06;71.25
46722;BME280;32455;43.430;23.136;2023-03-23T11:05:20;98320.75;;;14.71;69.93
46722;BME280;32455;43.430;23.136;2023-03-23T11:08:16;98325.00;;;14.67;68.46
46722;BME280;32455;43.430;23.136;2023-03-23T11:11:11;98327.31;;;14.92;68.48
46722;BME280;32455;43.430;23.136;2023-03-23T11:14:49;98322.91;;;15.24;69.38
46722;BME280;32455;43.430;23.136;2023-03-23T11:17:22;98327.47;;;15.41;65.50
46722;BME280;32455;43.430;23.136;2023-03-23T11:20:13;98299.97;;;15.10;66.63
46722;BME280;32455;43.430;23.136;2023-03-23T11:23:00;98309.66;;;15.45;72.88
46722;BME280;32455;43.430;23.136;2023-03-23T11:26:10;98314.78;;;15.63;68.40
46722;BME280;32455;43.430;23.136;2023-03-23T11:29:13;98315.97;;;15.67;66.13
46722;BME280;32455;43.430;23.136;2023-03-23T11:34:48;98308.78;;;15.61;64.34
46722;BME280;32455;43.430;23.136;2023-03-23T11:37:47;98293.03;;;15.58;65.00
46722;BME280;32455;43.430;23.136;2023-03-23T11:40:47;98304.88;;;15.52;62.45
46722;BME280;32455;43.430;23.136;2023-03-23T11:43:38;98288.66;;;15.74;64.63
46722;BME280;32455;43.430;23.136;2023-03-23T11:52:39;98277.22;;;15.28;65.08
46722;BME280;32455;43.430;23.136;2023-03-23T11:58:30;98283.56;;;15.77;65.36
46722;BME280;32455;43.430;23.136;2023-03-23T12:01:49;98283.09;;;15.42;64.43
46722;BME280;32455;43.430;23.136;2023-03-23T12:04:39;98281.66;;;15.56;67.12
46722;BME280;32455;43.430;23.136;2023-03-23T12:07:37;98283.09;;;15.64;64.98
46722;BME280;32455;43.430;23.136;2023-03-23T12:13:41;98264.09;;;15.81;64.22
46722;BME280;32455;43.430;23.136;2023-03-23T12:20:37;98264.50;;;15.94;64.70
46722;BME280;32455;43.430;23.136;2023-03-23T12:29:11;98255.59;;;15.99;61.90
46722;BME280;32455;43.430;23.136;2023-03-23T12:32:19;98252.63;;;16.00;61.26
46722;BME280;32455;43.430;23.136;2023-03-23T12:38:20;98251.16;;;15.88;65.83
46722;BME280;32455;43.430;23.136;2023-03-23T12:41:18;98257.53;;;16.31;58.87
46722;BME280;32455;43.430;23.136;2023-03-23T12:44:12;98250.50;;;16.02;58.11
46722;BME280;32455;43.430;23.136;2023-03-23T12:47:11;98252.63;;;15.73;60.88
46722;BME280;32455;43.430;23.136;2023-03-23T12:50:15;98252.16;;;16.36;61.18
46722;BME280;32455;43.430;23.136;2023-03-23T12:53:14;98254.25;;;16.01;61.75
46722;BME280;32455;43.430;23.136;2023-03-23T12:59:20;98238.03;;;16.34;61.73
46722;BME280;32455;43.430;23.136;2023-03-23T13:02:16;98238.06;;;16.39;62.90
46722;BME280;32455;43.430;23.136;2023-03-23T13:05:32;98240.56;;;16.40;60.14
46722;BME280;32455;43.430;23.136;2023-03-23T13:08:21;98226.69;;;16.10;62.69
46722;BME280;32455;43.430;23.136;2023-03-23T13:11:32;98232.66;;;16.39;62.24
46722;BME280;32455;43.430;23.136;2023-03-23T13:20:58;98226.09;;;16.35;63.21
46722;BME280;32455;43.430;23.136;2023-03-23T13:23:52;98209.19;;;16.22;61.96
46722;BME280;32455;43.430;23.136;2023-03-23T13:26:41;98221.13;;;16.21;61.35
46722;BME280;32455;43.430;23.136;2023-03-23T13:29:28;98211.81;;;16.12;61.68
46722;BME280;32455;43.430;23.136;2023-03-23T13:32:19;98206.03;;;16.36;59.16
46722;BME280;32455;43.430;23.136;2023-03-23T13:35:13;98195.53;;;16.44;61.43
46722;BME280;32455;43.430;23.136;2023-03-23T13:38:02;98198.63;;;16.58;58.29
46722;BME280;32455;43.430;23.136;2023-03-23T13:40:57;98199.34;;;16.81;57.85
46722;BME280;32455;43.430;23.136;2023-03-23T13:43:43;98187.50;;;16.55;60.46
46722;BME280;32455;43.430;23.136;2023-03-23T13:46:30;98188.41;;;16.70;59.64
46722;BME280;32455;43.430;23.136;2023-03-23T13:49:19;98206.28;;;16.66;55.63
46722;BME280;32455;43.430;23.136;2023-03-23T13:52:21;98198.94;;;16.30;59.33
46722;BME280;32455;43.430;23.136;2023-03-23T14:00:50;98196.34;;;16.77;59.44
46722;BME280;32455;43.430;23.136;2023-03-23T14:03:48;98194.97;;;16.74;56.58
46722;BME280;32455;43.430;23.136;2023-03-23T14:06:37;98181.91;;;16.71;56.86
46722;BME280;32455;43.430;23.136;2023-03-23T14:09:32;98188.25;;;16.87;55.95
46722;BME280;32455;43.430;23.136;2023-03-23T14:12:22;98195.81;;;16.80;57.49
46722;BME280;32455;43.430;23.136;2023-03-23T14:15:14;98191.44;;;16.74;57.07
46722;BME280;32455;43.430;23.136;2023-03-23T14:18:03;98181.84;;;16.24;59.25
46722;BME280;32455;43.430;23.136;2023-03-23T14:20:49;98184.50;;;16.56;57.14
46722;BME280;32455;43.430;23.136;2023-03-23T14:23:35;98169.06;;;16.19;61.28
46722;BME280;32455;43.430;23.136;2023-03-23T14:26:21;98175.84;;;16.22;61.12
46722;BME280;32455;43.430;23.136;2023-03-23T14:29:06;98177.25;;;16.30;59.91
46722;BME280;32455;43.430;23.136;2023-03-23T14:31:55;98167.22;;;16.67;57.51
46722;BME280;32455;43.430;23.136;2023-03-23T14:34:42;98174.53;;;16.62;57.16
46722;BME280;32455;43.430;23.136;2023-03-23T14:37:28;98171.38;;;16.38;57.42
46722;BME280;32455;43.430;23.136;2023-03-23T14:40:18;98179.53;;;16.43;57.24
46722;BME280;32455;43.430;23.136;2023-03-23T14:43:03;98165.13;;;16.37;57.42
46722;BME280;32455;43.430;23.136;2023-03-23T14:45:55;98173.84;;;16.07;57.93
46722;BME280;32455;43.430;23.136;2023-03-23T14:48:42;98176.44;;;15.97;58.16
46722;BME280;32455;43.430;23.136;2023-03-23T14:51:28;98168.91;;;16.04;58.26
46722;BME280;32455;43.430;23.136;2023-03-23T14:54:13;98176.06;;;16.15;58.00
46722;BME280;32455;43.430;23.136;2023-03-23T14:57:09;98167.25;;;15.71;58.23
46722;BME280;32455;43.430;23.136;2023-03-23T14:59:56;98158.38;;;15.53;58.97
46722;BME280;32455;43.430;23.136;2023-03-23T15:02:46;98152.91;;;15.48;61.35
46722;BME280;32455;43.430;23.136;2023-03-23T15:05:36;98140.22;;;15.76;58.65
46722;BME280;32455;43.430;23.136;2023-03-23T15:08:26;98159.19;;;15.76;59.24
46722;BME280;32455;43.430;23.136;2023-03-23T15:14:15;98161.00;;;15.70;57.85
46722;BME280;32455;43.430;23.136;2023-03-23T15:17:01;98159.13;;;15.71;58.85
46722;BME280;32455;43.430;23.136;2023-03-23T15:19:47;98151.88;;;15.76;58.33
46722;BME280;32455;43.430;23.136;2023-03-23T15:22:34;98153.25;;;15.79;58.94
46722;BME280;32455;43.430;23.136;2023-03-23T15:25:23;98152.97;;;15.53;59.20
46722;BME280;32455;43.430;23.136;2023-03-23T15:28:20;98161.78;;;15.66;59.14
46722;BME280;32455;43.430;23.136;2023-03-23T15:31:06;98151.66;;;15.56;60.14
46722;BME280;32455;43.430;23.136;2023-03-23T15:33:56;98155.53;;;15.16;61.97
46722;BME280;32455;43.430;23.136;2023-03-23T15:36:43;98160.31;;;15.31;61.27
46722;BME280;32455;43.430;23.136;2023-03-23T15:39:30;98161.97;;;15.37;61.32
46722;BME280;32455;43.430;23.136;2023-03-23T15:48:10;98162.97;;;15.04;62.09
46722;BME280;32455;43.430;23.136;2023-03-23T15:50:55;98147.59;;;14.88;61.93
46722;BME280;32455;43.430;23.136;2023-03-23T15:53:42;98163.78;;;14.83;62.29
46722;BME280;32455;43.430;23.136;2023-03-23T15:56:28;98147.66;;;14.71;63.47
46722;BME280;32455;43.430;23.136;2023-03-23T15:59:15;98159.78;;;14.68;63.46
46722;BME280;32455;43.430;23.136;2023-03-23T16:02:01;98154.50;;;14.57;64.11
46722;BME280;32455;43.430;23.136;2023-03-23T16:04:47;98161.53;;;14.41;65.97
46722;BME280;32455;43.430;23.136;2023-03-23T16:07:33;98152.69;;;13.95;69.21
46722;BME280;32455;43.430;23.136;2023-03-23T16:10:20;98163.19;;;13.34;72.89